Terminal Aerodrome Forecast
Issued by NWS

Home | Current Version | Previous Version | Text Only | Print | Product List | Glossary On
Versions: 1 2 3 4 5 6 7 8 9 10 11 12 13 14 15 16 17 18 19 20 21 22
000
FTUS46 KLOX 272000 AAA
TAFLAX
TAF AMD
KLAX 272052Z 2721/2824 25007KT P6SM SKC
     FM272200 26009KT P6SM SKC
     FM280300 VRB04KT P6SM SKC
     FM281400 04003KT P6SM FEW250
     FM282100 26005KT P6SM SCT250=

USA.gov is the U.S. government's official web portal to all federal, state and local government web resources and services.